createdAt,value
2017-12-28T00:00:57.908Z,8.78
2017-12-28T00:03:26.661Z,8.79
2017-12-28T00:05:55.052Z,8.59
2017-12-28T00:08:25.185Z,8.70
2017-12-28T00:10:54.475Z,8.77
2017-12-28T00:13:23.673Z,8.78
2017-12-28T00:15:54.621Z,8.90
2017-12-28T00:18:23.480Z,8.83
2017-12-28T00:20:53.284Z,8.89
2017-12-28T00:23:22.955Z,8.84
2017-12-28T00:25:51.760Z,8.93
2017-12-28T00:28:21.277Z,8.98
2017-12-28T00:30:50.064Z,8.88
2017-12-28T00:33:19.594Z,9.13
2017-12-28T00:35:48.001Z,9.20
2017-12-28T00:38:17.570Z,9.12
2017-12-28T00:40:46.145Z,9.17
2017-12-28T00:43:14.580Z,9.33
2017-12-28T00:45:43.884Z,9.42
2017-12-28T00:48:13.173Z,9.34
2017-12-28T00:50:42.938Z,9.42
2017-12-28T00:53:12.673Z,9.30
2017-12-28T00:55:42.498Z,9.38
2017-12-28T00:58:11.430Z,9.14
2017-12-28T01:00:41.320Z,9.11
2017-12-28T01:03:10.293Z,8.97
2017-12-28T01:05:40.156Z,8.84
2017-12-28T01:08:09.719Z,8.74
2017-12-28T01:10:38.798Z,8.95
2017-12-28T01:13:08.607Z,8.92
2017-12-28T01:15:37.321Z,9.00
2017-12-28T01:18:06.066Z,8.89
2017-12-28T01:20:34.684Z,8.73
2017-12-28T01:23:03.845Z,8.55
2017-12-28T01:25:32.621Z,8.78
2017-12-28T01:28:01.043Z,8.72
2017-12-28T01:30:30.339Z,8.99
2017-12-28T01:32:59.259Z,8.98
2017-12-28T01:35:28.193Z,8.91
2017-12-28T01:37:57.113Z,9.08
2017-12-28T01:40:26.448Z,9.19
2017-12-28T01:42:55.993Z,9.17
2017-12-28T01:45:25.661Z,9.19
2017-12-28T01:48:03.201Z,9.22
2017-12-28T01:50:31.725Z,9.28
2017-12-28T01:53:00.074Z,9.42
2017-12-28T01:55:29.109Z,9.48
2017-12-28T01:57:57.509Z,9.58
2017-12-28T02:00:27.094Z,9.47
2017-12-28T02:02:57.064Z,9.44
2017-12-28T02:05:25.825Z,9.61
2017-12-28T02:07:55.074Z,9.75
2017-12-28T02:10:25.402Z,9.52
2017-12-28T02:12:54.440Z,9.70
2017-12-28T02:15:23.626Z,9.67
2017-12-28T02:17:53.068Z,9.80
2017-12-28T02:20:21.498Z,9.92
2017-12-28T02:22:50.147Z,10.02
2017-12-28T02:25:18.974Z,10.06
2017-12-28T02:27:47.684Z,10.07
2017-12-28T02:30:16.501Z,10.21
2017-12-28T02:32:45.931Z,10.12
2017-12-28T02:35:15.113Z,10.31
2017-12-28T02:37:43.882Z,10.17
2017-12-28T02:40:12.936Z,10.21
2017-12-28T02:42:42.028Z,10.27
2017-12-28T02:45:11.427Z,10.28
2017-12-28T02:47:41.372Z,9.76
2017-12-28T02:50:10.304Z,9.81
2017-12-28T02:52:40.094Z,10.09
2017-12-28T02:55:09.798Z,10.14
2017-12-28T02:57:38.548Z,10.26
2017-12-28T03:00:07.395Z,10.23
2017-12-28T03:02:36.659Z,10.17
2017-12-28T03:05:05.247Z,10.16
2017-12-28T03:07:33.611Z,10.08
2017-12-28T03:10:02.191Z,10.27
2017-12-28T03:12:32.000Z,10.33
2017-12-28T03:15:01.534Z,10.23
2017-12-28T03:17:30.512Z,10.26
2017-12-28T03:19:59.842Z,10.40
2017-12-28T03:22:28.201Z,10.44
2017-12-28T03:24:56.990Z,10.41
2017-12-28T03:27:25.405Z,10.42
2017-12-28T03:29:54.509Z,10.48
2017-12-28T03:32:23.673Z,10.49
2017-12-28T03:34:52.721Z,10.50
2017-12-28T03:37:21.525Z,10.51
2017-12-28T03:39:49.905Z,10.53
2017-12-28T03:42:18.619Z,10.59
2017-12-28T03:44:46.981Z,10.58
2017-12-28T03:47:15.790Z,10.56
2017-12-28T03:49:45.445Z,10.57
2017-12-28T03:52:15.739Z,10.53
2017-12-28T03:54:44.470Z,10.31
2017-12-28T03:57:13.314Z,10.59
2017-12-28T03:59:42.433Z,10.62
2017-12-28T04:02:11.204Z,10.63
2017-12-28T04:04:40.393Z,10.54
2017-12-28T04:07:09.049Z,10.55
2017-12-28T04:09:37.648Z,10.45
2017-12-28T04:12:06.156Z,10.52
2017-12-28T04:14:35.075Z,10.56
2017-12-28T04:17:04.945Z,10.63
2017-12-28T04:19:33.933Z,10.63
2017-12-28T04:22:02.616Z,10.70
2017-12-28T04:24:31.949Z,10.74
2017-12-28T04:27:01.233Z,10.73
2017-12-28T04:29:29.724Z,10.68
2017-12-28T04:31:58.488Z,10.76
2017-12-28T04:34:27.576Z,10.74
2017-12-28T04:36:56.012Z,10.84
2017-12-28T04:39:25.022Z,10.86
2017-12-28T04:41:53.844Z,10.91
2017-12-28T04:44:23.767Z,10.94
2017-12-28T04:46:53.914Z,10.98
2017-12-28T04:49:23.447Z,11.00
2017-12-28T04:51:52.881Z,10.97
2017-12-28T04:54:22.068Z,10.95
2017-12-28T04:56:51.526Z,11.01
2017-12-28T04:59:20.344Z,11.02
2017-12-28T05:01:49.721Z,11.00
2017-12-28T05:04:19.099Z,11.04
2017-12-28T05:06:48.673Z,11.10
2017-12-28T05:09:18.672Z,11.06
2017-12-28T05:11:47.378Z,11.09
2017-12-28T05:14:16.192Z,11.13
2017-12-28T05:16:45.157Z,11.03
2017-12-28T05:19:14.057Z,11.07
2017-12-28T05:21:42.874Z,11.06
2017-12-28T05:24:12.489Z,11.08
2017-12-28T05:26:41.346Z,11.07
2017-12-28T05:29:09.730Z,11.06
2017-12-28T05:31:38.620Z,11.01
2017-12-28T05:34:07.114Z,11.00
2017-12-28T05:36:35.897Z,11.02
2017-12-28T05:39:05.856Z,10.91
2017-12-28T05:41:34.575Z,10.94
2017-12-28T05:44:04.092Z,10.81
2017-12-28T05:46:33.003Z,10.85
2017-12-28T05:49:01.733Z,10.68
2017-12-28T05:51:30.591Z,10.79
2017-12-28T05:54:00.095Z,10.89
2017-12-28T05:56:29.267Z,10.76
2017-12-28T05:58:58.725Z,10.81
2017-12-28T06:01:28.211Z,10.84
2017-12-28T06:03:57.365Z,10.94
2017-12-28T06:06:26.154Z,10.92
2017-12-28T06:08:55.495Z,10.98
2017-12-28T06:11:23.852Z,10.98
2017-12-28T06:13:52.431Z,11.03
2017-12-28T06:16:21.101Z,10.97
2017-12-28T06:18:49.477Z,10.88
2017-12-28T06:21:17.842Z,10.87
2017-12-28T06:23:46.498Z,10.97
2017-12-28T06:26:14.858Z,10.97
2017-12-28T06:28:43.637Z,10.96
2017-12-28T06:31:12.600Z,11.03
2017-12-28T06:33:41.417Z,11.05
2017-12-28T06:36:11.006Z,10.85
2017-12-28T06:38:39.553Z,10.84
2017-12-28T06:41:08.377Z,10.82
2017-12-28T06:43:37.407Z,10.77
2017-12-28T06:46:07.422Z,10.74
2017-12-28T06:48:37.229Z,10.86
2017-12-28T06:51:06.908Z,10.86
2017-12-28T06:53:35.708Z,10.95
2017-12-28T06:56:04.991Z,10.86
2017-12-28T06:58:34.988Z,10.72
2017-12-28T07:01:03.783Z,10.91
2017-12-28T07:03:33.242Z,11.03
2017-12-28T07:06:03.159Z,10.92
2017-12-28T07:08:32.439Z,10.87
2017-12-28T07:11:02.058Z,10.90
2017-12-28T07:13:32.151Z,10.91
2017-12-28T07:16:00.856Z,10.95
2017-12-28T07:18:30.358Z,11.03
2017-12-28T07:20:59.148Z,11.00
2017-12-28T07:23:27.663Z,11.00
2017-12-28T07:25:56.506Z,10.93
2017-12-28T07:28:25.768Z,11.08
2017-12-28T07:30:54.156Z,11.16
2017-12-28T07:33:22.754Z,11.29
2017-12-28T07:35:51.823Z,11.29
2017-12-28T07:38:21.562Z,11.16
2017-12-28T07:40:51.019Z,11.21
2017-12-28T07:43:19.774Z,11.27
2017-12-28T07:45:49.127Z,11.31
2017-12-28T07:48:18.701Z,11.29
2017-12-28T07:50:47.462Z,11.10
2017-12-28T07:53:16.027Z,11.23
2017-12-28T07:55:44.702Z,11.14
2017-12-28T07:58:14.328Z,11.01
2017-12-28T08:00:42.829Z,11.13
2017-12-28T08:03:11.794Z,11.04
2017-12-28T08:05:41.271Z,11.00
2017-12-28T08:08:09.688Z,10.70
2017-12-28T08:10:38.854Z,10.86
2017-12-28T08:13:07.605Z,10.95
2017-12-28T08:15:36.361Z,10.98
2017-12-28T08:18:05.139Z,10.99
2017-12-28T08:20:33.936Z,11.07
2017-12-28T08:23:02.299Z,10.97
2017-12-28T08:25:31.016Z,10.79
2017-12-28T08:27:59.486Z,10.76
2017-12-28T08:30:27.842Z,10.76
2017-12-28T08:32:57.758Z,10.60
2017-12-28T08:35:26.153Z,10.21
2017-12-28T08:37:54.511Z,10.29
2017-12-28T08:40:23.017Z,10.28
2017-12-28T08:42:51.586Z,10.68
2017-12-28T08:45:20.198Z,10.40
2017-12-28T08:47:48.589Z,10.38
2017-12-28T08:50:17.730Z,10.50
2017-12-28T08:52:47.002Z,10.52
2017-12-28T08:55:16.794Z,10.65
2017-12-28T08:57:46.810Z,10.58
2017-12-28T09:00:15.266Z,10.43
2017-12-28T09:02:43.622Z,10.40
2017-12-28T09:05:12.007Z,10.22
2017-12-28T09:07:40.380Z,10.22
2017-12-28T09:10:08.735Z,10.31
2017-12-28T09:12:37.078Z,10.32
2017-12-28T09:15:05.522Z,10.30
2017-12-28T09:17:33.908Z,10.40
2017-12-28T09:20:02.288Z,10.71
2017-12-28T09:22:30.643Z,10.62
2017-12-28T09:24:59.043Z,10.34
2017-12-28T09:27:27.456Z,10.35
2017-12-28T09:29:55.806Z,10.13
2017-12-28T09:32:24.187Z,10.11
2017-12-28T09:34:52.531Z,10.17
2017-12-28T09:37:20.879Z,10.44
2017-12-28T09:39:49.755Z,10.48
2017-12-28T09:42:18.105Z,10.59
2017-12-28T09:44:46.453Z,10.94
2017-12-28T09:47:14.810Z,10.69
2017-12-28T09:49:43.539Z,10.54
2017-12-28T09:52:11.886Z,10.23
2017-12-28T09:54:40.305Z,10.09
2017-12-28T09:57:08.686Z,10.08
2017-12-28T09:59:37.028Z,10.49
2017-12-28T10:02:05.392Z,10.56
2017-12-28T10:04:34.122Z,10.56
2017-12-28T10:07:02.527Z,10.31
2017-12-28T10:09:30.995Z,10.70
2017-12-28T10:11:59.347Z,10.73
2017-12-28T10:14:27.739Z,10.87
2017-12-28T10:16:56.120Z,10.62
2017-12-28T10:19:24.456Z,10.42
2017-12-28T10:21:53.200Z,10.38
2017-12-28T10:24:21.555Z,10.51
2017-12-28T10:26:49.935Z,10.18
2017-12-28T10:29:18.288Z,10.51
2017-12-28T10:31:46.643Z,10.66
2017-12-28T10:34:15.087Z,10.34
2017-12-28T10:36:43.437Z,10.13
2017-12-28T10:39:11.814Z,10.48
2017-12-28T10:41:40.168Z,10.34
2017-12-28T10:44:08.899Z,10.17
2017-12-28T10:46:37.263Z,10.34
2017-12-28T10:49:05.603Z,10.31
2017-12-28T10:51:34.352Z,10.49
2017-12-28T10:54:02.723Z,10.44
2017-12-28T10:56:31.069Z,10.60
2017-12-28T10:58:59.410Z,10.70
2017-12-28T11:01:27.759Z,10.61
2017-12-28T11:03:56.136Z,10.32
2017-12-28T11:06:24.499Z,10.44
2017-12-28T11:08:52.914Z,10.44
2017-12-28T11:11:21.319Z,10.27
2017-12-28T11:13:49.665Z,10.19
2017-12-28T11:16:18.066Z,10.18
2017-12-28T11:18:46.507Z,10.12
2017-12-28T11:21:14.857Z,10.31
2017-12-28T11:23:43.224Z,10.31
2017-12-28T11:26:12.052Z,10.36
2017-12-28T11:28:40.384Z,10.32
2017-12-28T11:31:09.163Z,10.21
2017-12-28T11:33:37.522Z,10.04
2017-12-28T11:36:05.855Z,10.18
2017-12-28T11:38:34.275Z,10.46
2017-12-28T11:41:02.612Z,10.01
2017-12-28T11:43:30.954Z,10.47
2017-12-28T11:45:59.713Z,10.58
2017-12-28T11:48:32.055Z,10.08
2017-12-28T11:51:00.427Z,10.10
2017-12-28T11:53:28.826Z,10.08
2017-12-28T11:56:02.679Z,9.98
2017-12-28T11:58:31.027Z,10.29
2017-12-28T12:01:04.807Z,10.25
2017-12-28T12:03:33.155Z,10.23
2017-12-28T12:06:01.932Z,10.08
2017-12-28T12:08:32.220Z,10.01
2017-12-28T12:11:00.567Z,10.25
2017-12-28T12:13:28.962Z,10.34
2017-12-28T12:15:57.327Z,10.18
2017-12-28T12:18:25.676Z,9.96
2017-12-28T12:20:54.434Z,9.88
2017-12-28T12:23:22.815Z,10.11
2017-12-28T12:25:51.157Z,10.15
2017-12-28T12:28:19.496Z,9.85
2017-12-28T12:30:47.884Z,10.05
2017-12-28T12:33:16.768Z,10.00
2017-12-28T12:35:45.615Z,10.11
2017-12-28T12:38:14.950Z,10.26
2017-12-28T12:40:43.690Z,10.15
2017-12-28T12:43:12.348Z,10.16
2017-12-28T12:45:40.726Z,10.22
2017-12-28T12:48:09.055Z,10.61
2017-12-28T12:50:37.404Z,10.39
2017-12-28T12:53:05.976Z,10.61
2017-12-28T12:55:34.393Z,10.21
2017-12-28T12:58:02.739Z,10.01
2017-12-28T13:00:31.100Z,10.28
2017-12-28T13:02:59.468Z,10.46
2017-12-28T13:05:28.294Z,10.12
2017-12-28T13:07:56.659Z,10.38
2017-12-28T13:10:25.012Z,10.62
2017-12-28T13:12:53.851Z,10.44
2017-12-28T13:15:22.218Z,10.48
2017-12-28T13:17:50.603Z,10.73
2017-12-28T13:20:18.994Z,10.71
2017-12-28T13:22:47.361Z,10.99
2017-12-28T13:25:15.731Z,10.95
2017-12-28T13:27:44.094Z,11.03
2017-12-28T13:30:12.604Z,10.68
2017-12-28T13:32:40.941Z,10.87
2017-12-28T13:35:09.372Z,10.80
2017-12-28T13:37:37.752Z,10.71
2017-12-28T13:40:06.222Z,11.21
2017-12-28T13:42:34.567Z,10.86
2017-12-28T13:45:02.933Z,11.05
2017-12-28T13:47:31.690Z,10.69
2017-12-28T13:50:00.050Z,10.62
2017-12-28T13:52:28.458Z,10.67
2017-12-28T13:54:56.898Z,10.84
2017-12-28T13:57:25.238Z,10.70
2017-12-28T13:59:54.147Z,10.59
2017-12-28T14:02:22.491Z,10.56
2017-12-28T14:04:50.923Z,11.04
2017-12-28T14:07:19.303Z,10.74
2017-12-28T14:09:47.691Z,10.68
2017-12-28T14:12:16.073Z,10.83
2017-12-28T14:14:44.446Z,10.97
2017-12-28T14:17:12.819Z,11.05
2017-12-28T14:19:41.208Z,10.81
2017-12-28T14:22:09.581Z,10.92
2017-12-28T14:24:38.099Z,10.56
2017-12-28T14:27:06.540Z,10.58
2017-12-28T14:29:34.909Z,10.69
2017-12-28T14:32:03.255Z,10.63
2017-12-28T14:34:32.074Z,10.68
2017-12-28T14:37:00.482Z,10.33
2017-12-28T14:39:28.824Z,10.49
2017-12-28T14:41:57.177Z,10.64
2017-12-28T14:44:25.940Z,10.66
2017-12-28T14:46:54.387Z,10.57
2017-12-28T14:49:22.729Z,10.68
2017-12-28T14:51:51.156Z,10.24
2017-12-28T14:54:19.490Z,10.37
2017-12-28T14:56:47.839Z,10.20
2017-12-28T14:59:16.235Z,10.48
2017-12-28T15:01:44.968Z,10.26
2017-12-28T15:04:13.310Z,10.21
2017-12-28T15:06:41.671Z,10.39
2017-12-28T15:09:10.413Z,10.37
2017-12-28T15:11:38.769Z,10.48
2017-12-28T15:14:07.149Z,10.36
2017-12-28T15:16:35.551Z,10.27
2017-12-28T15:19:03.953Z,10.39
2017-12-28T15:21:32.275Z,10.36
2017-12-28T15:24:00.623Z,10.45
2017-12-28T15:26:29.070Z,10.58
2017-12-28T15:28:57.450Z,10.59
2017-12-28T15:31:25.797Z,10.43
2017-12-28T15:33:54.216Z,10.21
2017-12-28T15:36:22.659Z,10.16
2017-12-28T15:38:51.055Z,10.34
2017-12-28T15:41:19.435Z,9.99
2017-12-28T15:43:47.820Z,10.19
2017-12-28T15:46:16.191Z,10.45
2017-12-28T15:48:44.578Z,10.54
2017-12-28T15:51:12.948Z,10.32
2017-12-28T15:53:41.291Z,10.23
2017-12-28T15:56:10.123Z,10.01
2017-12-28T15:58:38.479Z,9.94
2017-12-28T16:01:06.849Z,9.50
2017-12-28T16:03:35.191Z,9.63
2017-12-28T16:06:03.555Z,9.42
2017-12-28T16:08:31.898Z,9.29
2017-12-28T16:11:00.239Z,9.36
2017-12-28T16:13:29.080Z,9.70
2017-12-28T16:15:57.455Z,9.73
2017-12-28T16:18:25.831Z,9.83
2017-12-28T16:20:54.187Z,9.55
2017-12-28T16:23:22.597Z,9.63
2017-12-28T16:25:50.948Z,9.51
2017-12-28T16:28:19.308Z,9.50
2017-12-28T16:30:48.180Z,9.26
2017-12-28T16:33:16.587Z,9.43
2017-12-28T16:35:44.953Z,9.22
2017-12-28T16:38:13.686Z,9.29
2017-12-28T16:40:42.028Z,9.32
2017-12-28T16:43:10.395Z,9.42
2017-12-28T16:45:38.771Z,9.00
2017-12-28T16:48:07.616Z,9.15
2017-12-28T16:50:35.975Z,9.35
2017-12-28T16:53:04.359Z,9.48
2017-12-28T16:55:32.701Z,9.25
2017-12-28T16:58:01.475Z,9.26
2017-12-28T17:00:29.922Z,9.26
2017-12-28T17:02:58.265Z,9.05
2017-12-28T17:05:26.627Z,9.08
2017-12-28T17:07:55.455Z,9.06
2017-12-28T17:10:23.795Z,9.22
2017-12-28T17:12:52.624Z,9.20
2017-12-28T17:15:21.908Z,9.05
2017-12-28T17:17:50.264Z,8.91
2017-12-28T17:20:18.639Z,8.67
2017-12-28T17:22:47.453Z,8.76
2017-12-28T17:25:15.848Z,8.83
2017-12-28T17:27:44.204Z,8.89
2017-12-28T17:30:12.539Z,9.19
2017-12-28T17:32:41.095Z,9.07
2017-12-28T17:35:09.455Z,9.17
2017-12-28T17:37:37.847Z,9.00
2017-12-28T17:40:06.189Z,8.77
2017-12-28T17:42:34.607Z,9.00
2017-12-28T17:45:02.957Z,8.95
2017-12-28T17:47:31.304Z,8.84
2017-12-28T17:50:00.143Z,8.74
2017-12-28T17:52:28.525Z,8.71
2017-12-28T17:54:56.901Z,8.47
2017-12-28T17:57:25.283Z,8.38
2017-12-28T17:59:53.624Z,8.62
2017-12-28T18:02:22.468Z,8.62
2017-12-28T18:04:50.827Z,8.84
2017-12-28T18:07:19.935Z,8.72
2017-12-28T18:09:48.273Z,8.83
2017-12-28T18:12:16.631Z,9.08
2017-12-28T18:14:45.385Z,9.08
2017-12-28T18:17:13.737Z,9.01
2017-12-28T18:19:42.089Z,9.35
2017-12-28T18:22:11.003Z,9.60
2017-12-28T18:24:39.350Z,9.51
2017-12-28T18:27:08.107Z,9.47
2017-12-28T18:29:36.443Z,9.46
2017-12-28T18:32:04.848Z,9.47
2017-12-28T18:34:33.323Z,9.50
2017-12-28T18:37:01.662Z,9.42
2017-12-28T18:39:30.407Z,9.17
2017-12-28T18:41:58.875Z,8.81
2017-12-28T18:44:27.211Z,8.84
2017-12-28T18:46:55.672Z,8.66
2017-12-28T18:49:24.446Z,8.86
2017-12-28T18:51:52.795Z,8.84
2017-12-28T18:54:21.138Z,8.83
2017-12-28T18:56:49.551Z,9.07
2017-12-28T18:59:17.889Z,9.02
2017-12-28T19:01:46.239Z,8.61
2017-12-28T19:04:14.690Z,8.68
2017-12-28T19:06:43.043Z,8.75
2017-12-28T19:09:11.401Z,8.72
2017-12-28T19:11:40.179Z,8.62
2017-12-28T19:14:08.920Z,8.67
2017-12-28T19:16:37.275Z,8.58
2017-12-28T19:19:05.677Z,8.47
2017-12-28T19:21:34.039Z,8.67
2017-12-28T19:24:02.448Z,8.72
2017-12-28T19:26:30.945Z,8.51
2017-12-28T19:28:59.291Z,8.61
2017-12-28T19:31:27.627Z,8.73
2017-12-28T19:33:56.455Z,8.56
2017-12-28T19:36:24.805Z,8.46
2017-12-28T19:38:53.235Z,8.47
2017-12-28T19:41:21.695Z,8.65
2017-12-28T19:43:50.029Z,8.18
2017-12-28T19:46:18.766Z,8.71
2017-12-28T19:48:47.145Z,8.76
2017-12-28T19:51:15.486Z,8.91
2017-12-28T19:53:43.855Z,8.73
2017-12-28T19:56:12.184Z,8.70
2017-12-28T19:58:40.656Z,8.88
2017-12-28T20:01:09.030Z,8.93
2017-12-28T20:03:37.479Z,8.95
2017-12-28T20:06:05.907Z,8.88
2017-12-28T20:08:34.255Z,9.02
2017-12-28T20:11:02.635Z,9.42
2017-12-28T20:13:31.114Z,9.37
2017-12-28T20:15:59.459Z,9.31
2017-12-28T20:18:28.210Z,9.25
2017-12-28T20:20:56.554Z,9.19
2017-12-28T20:23:24.956Z,9.33
2017-12-28T20:25:53.307Z,9.45
2017-12-28T20:28:21.654Z,9.55
2017-12-28T20:30:49.993Z,9.61
2017-12-28T20:33:18.379Z,9.31
2017-12-28T20:35:46.741Z,9.19
2017-12-28T20:38:15.117Z,9.26
2017-12-28T20:40:43.499Z,9.27
2017-12-28T20:43:11.840Z,9.61
2017-12-28T20:45:40.579Z,9.20
2017-12-28T20:48:09.035Z,9.03
2017-12-28T20:50:37.374Z,9.41
2017-12-28T20:53:06.127Z,9.31
2017-12-28T20:55:34.603Z,9.23
2017-12-28T20:58:02.951Z,9.24
2017-12-28T21:00:31.697Z,9.06
2017-12-28T21:03:00.427Z,9.16
2017-12-28T21:05:28.892Z,9.34
2017-12-28T21:07:58.012Z,9.12
2017-12-28T21:10:26.387Z,8.81
2017-12-28T21:12:54.726Z,8.81
2017-12-28T21:15:23.497Z,9.09
2017-12-28T21:17:51.878Z,9.13
2017-12-28T21:20:20.233Z,9.01
2017-12-28T21:22:49.670Z,9.30
2017-12-28T21:25:18.111Z,9.17
2017-12-28T21:27:46.481Z,9.16
2017-12-28T21:30:14.992Z,9.36
2017-12-28T21:32:44.247Z,9.42
2017-12-28T21:35:12.864Z,9.60
2017-12-28T21:37:41.288Z,9.72
2017-12-28T21:40:11.220Z,9.41
2017-12-28T21:42:39.847Z,9.18
2017-12-28T21:45:08.297Z,9.19
2017-12-28T21:47:36.762Z,9.07
2017-12-28T21:50:05.103Z,9.20
2017-12-28T21:52:33.440Z,9.27
2017-12-28T21:55:01.814Z,9.30
2017-12-28T21:57:30.156Z,9.31
2017-12-28T21:59:58.888Z,9.34
2017-12-28T22:02:27.361Z,9.54
2017-12-28T22:04:55.725Z,9.24
2017-12-28T22:07:24.154Z,9.37
2017-12-28T22:09:52.703Z,9.59
2017-12-28T22:12:21.156Z,9.43
2017-12-28T22:14:50.044Z,9.66
2017-12-28T22:17:18.895Z,9.85
2017-12-28T22:19:47.259Z,9.81
2017-12-28T22:22:15.611Z,9.60
2017-12-28T22:24:43.979Z,9.57
2017-12-28T22:27:12.731Z,9.89
2017-12-28T22:29:41.086Z,9.97
2017-12-28T22:32:09.463Z,9.55
2017-12-28T22:34:37.815Z,9.47
2017-12-28T22:37:06.251Z,9.63
2017-12-28T22:39:34.712Z,9.57
2017-12-28T22:42:03.069Z,9.73
2017-12-28T22:44:31.483Z,9.68
2017-12-28T22:46:59.845Z,9.79
2017-12-28T22:49:28.248Z,9.67
2017-12-28T22:51:56.655Z,9.69
2017-12-28T22:54:25.099Z,9.85
2017-12-28T22:56:53.434Z,9.84
2017-12-28T22:59:21.959Z,9.64
2017-12-28T23:01:50.455Z,9.67
2017-12-28T23:04:18.802Z,9.48
2017-12-28T23:06:47.147Z,9.49
2017-12-28T23:09:15.516Z,9.72
2017-12-28T23:11:43.862Z,9.84
2017-12-28T23:14:12.308Z,9.63
2017-12-28T23:16:40.727Z,9.63
2017-12-28T23:19:09.073Z,9.74
2017-12-28T23:21:37.416Z,9.60
2017-12-28T23:24:05.779Z,9.46
2017-12-28T23:26:34.122Z,9.13
2017-12-28T23:29:02.512Z,9.31
2017-12-28T23:31:30.964Z,9.49
2017-12-28T23:33:59.320Z,9.46
2017-12-28T23:36:27.663Z,9.53
2017-12-28T23:38:56.515Z,9.62
2017-12-28T23:41:24.908Z,9.56
2017-12-28T23:43:53.254Z,9.28
2017-12-28T23:46:21.613Z,9.37
2017-12-28T23:48:50.018Z,9.33
2017-12-28T23:51:18.360Z,9.38
2017-12-28T23:53:47.119Z,9.57
2017-12-28T23:56:15.464Z,9.26
2017-12-28T23:58:43.812Z,9.60
